Main page
METAR-TAF:

METAR-TAF

Airports :

Atlantic Municipal Airport

Atlantic, Iowa, United States

latitude: 41-24N, longitude: 095-03W, elevation: 1181 ft

Current weather observation

The report was made 17 minutes ago, at 23:35 UTC
Wind 28 mph from the South/Southwest with gusts up to 37 mph
Temperature 88°F
Humidity 36%
Pressure 29.86 in. Hg
Visibility: 10 miles
Clear sky

METAR: KAIO 012335Z AUTO 21024G32KT 10SM CLR 31/14 A2986 RMK AO2

Time: 18:52 (23:52 UTC)


TAF: missing

Weather observations and forecasts of more than 4000 airports (METAR and TAF reports).

The available stations are represented by yellow and red dots on the map.

Hover mouse over dot to see the name of the station.

Then click to see weather observations and forecasts.

To change the map : click on the green buttons with a black cross to zoom in, on the green button with a dash to zoom out, or on the green arrows for adjacent maps.


METAR-TAF: